Aeroporto :
LOGIN :

Iscrizione | Disclaimer

   EN    FR    IT 

 










Sommario :    VFR   VFR Marginale   IFR   IFR Intensivo   IFR Molto Intensivo
Visibilità : 
Base nubi : 
>= 8 km
>= 3000ft
5 / 8 km
1000 / 3000 ft
1500m / 5 km
500 / 1000 ft
800 / 1500m
200 / 500 ft
< 800m
< 200 ft
Simboli :   Temporali  Nebbia  Neve Forte  Precipitazioni Forti  Vento > 20 kt
SIGMETs :   Varie  Temporali  Ghiacco  Turbolenza  Onda orograficha  Ceneri Vulcaniche






- Altitudine del aeroporto : 782 ft
- Codice IATA : BGY


LIME - Orio al Serio International - Bergamo

ULTIMO METAR :
  • 191720Z 01003KT 9999 RA BKN045 16/15 Q1015 NOSIG

METARs OBSOLETI :
  • 191650Z 04002KT 9999 BKN050 16/15 Q1015 NOSIG
  • 191620Z VRB02KT 9999 SCT035 BKN045 17/14 Q1015 NOSIG
  • 191550Z VRB02KT 9999 SCT035 BKN090 17/14 Q1015 NOSIG
  • 191520Z 06003KT 9999 BKN090 17/15 Q1015 NOSIG
  • 191450Z 06003KT 040V110 9999 BKN050 18/14 Q1015 NOSIG

TAF TAF LIME
Valido dal 19 a 18 ore il 20 a 18 ore UTC


191700Z 1918/2018 13007KT 7000 SCT030 BKN050



MetMap, La meteo Aeronautica in un colpo d'occhio ! - Copyright ORBIFLY Dicembre 2007 - Disclaimer

ORBIFLY MET'MAP TEAM :

Programmazione e sviluppo : Alexandra Zaïnal
Concezione e sviluppo : Baudouin d'Aumeries
Co-Programmazione e sviluppo : Marc-Olivier Méhu
Supporto tecnico e logistico : Manuel Goepfert
Aiuto per la traduzione : Arnaldo La Scala

Contatto : metmap@orbifly.com




FONTI E CREDITI :

   NOAA